Time;durP1;ratioP1;P1;durP2;ratioP2;P2;SDS_P1;SDS_P2;PMS_P1;PMS_P2;Temp;Humidity;BMP_temperature;BMP_pressure;BME280_temperature;BME280_humidity;BME280_pressure;Samples;Min_cycle;Max_cycle;Signal;HPM_P1;HPM_P2
2021/12/10 00:00:52;;;;;;;11.40;4.32;;;;;;;-2.59;90.55;92592.00;4840282;29;20054;-62
2021/12/10 00:03:47;;;;;;;10.82;4.68;;;;;;;-2.52;90.68;92584.78;4837554;29;20046;-62
2021/12/10 00:06:16;;;;;;;12.48;4.82;;;;;;;-2.62;90.18;92569.31;4839248;29;20383;-62
2021/12/10 00:08:46;;;;;;;13.60;4.67;;;;;;;-2.48;90.54;92569.47;4839987;29;20071;-62
2021/12/10 00:11:39;;;;;;;14.23;4.47;;;;;;;-2.43;90.36;92552.28;4839612;29;20050;-61
2021/12/10 00:14:07;;;;;;;11.80;4.65;;;;;;;-2.37;90.36;92552.69;4838322;29;20395;-61
2021/12/10 00:16:36;;;;;;;13.95;4.97;;;;;;;-2.31;90.49;92545.88;4839941;29;20098;-62
2021/12/10 00:19:28;;;;;;;12.43;5.25;;;;;;;-2.18;90.65;92546.38;4839049;29;20053;-61
2021/12/10 00:21:57;;;;;;;13.20;5.10;;;;;;;-2.23;90.80;92536.75;4839858;29;20072;-62
2021/12/10 00:24:28;;;;;;;13.98;5.63;;;;;;;-2.21;91.08;92537.16;4838356;29;20038;-62
2021/12/10 00:26:57;;;;;;;16.70;6.30;;;;;;;-2.18;91.63;92528.34;4839826;29;20064;-62
2021/12/10 00:29:25;;;;;;;14.75;5.72;;;;;;;-2.22;91.64;92524.84;4853595;29;20425;-62
2021/12/10 00:32:01;;;;;;;15.88;6.18;;;;;;;-2.23;91.34;92528.69;4839736;29;20054;-62
2021/12/10 00:34:34;;;;;;;14.43;5.37;;;;;;;-2.29;91.65;92520.19;4838971;29;20372;-61
2021/12/10 00:37:05;;;;;;;16.27;6.07;;;;;;;-2.25;91.65;92510.25;4839268;29;20062;-62
2021/12/10 00:39:37;;;;;;;12.15;5.18;;;;;;;-2.24;91.17;92506.41;4838241;29;20125;-62
2021/12/10 00:42:12;;;;;;;12.85;5.10;;;;;;;-2.16;90.44;92501.09;4809106;29;20062;-61
2021/12/10 00:44:39;;;;;;;13.38;5.43;;;;;;;-2.09;90.25;92485.81;4803329;29;20055;-61
2021/12/10 00:47:07;;;;;;;13.85;5.90;;;;;;;-2.07;90.48;92482.78;4802253;29;20470;-61
2021/12/10 00:49:34;;;;;;;14.30;5.53;;;;;;;-2.00;90.53;92490.88;4807818;29;20458;-62
2021/12/10 00:52:05;;;;;;;16.35;6.70;;;;;;;-2.03;90.33;92470.91;4837837;29;20113;-62
2021/12/10 00:54:32;;;;;;;14.90;6.15;;;;;;;-2.02;90.39;92458.22;4838234;29;20920;-62
2021/12/10 00:57:01;;;;;;;16.83;6.78;;;;;;;-1.96;90.18;92455.97;4838829;29;20062;-62
2021/12/10 00:59:28;;;;;;;16.77;6.93;;;;;;;-1.99;90.00;92440.56;4838340;29;20054;-62
2021/12/10 01:01:56;;;;;;;16.15;7.85;;;;;;;-2.09;90.08;92434.75;4838758;29;20527;-62
2021/12/10 01:04:29;;;;;;;14.77;6.13;;;;;;;-2.08;89.73;92432.81;4838462;29;20049;-62
2021/12/10 01:06:58;;;;;;;12.15;5.60;;;;;;;-2.08;89.51;92422.84;4838388;29;20061;-62
2021/12/10 01:09:30;;;;;;;14.15;5.50;;;;;;;-2.15;89.32;92409.38;4838459;29;20046;-62
2021/12/10 01:12:08;;;;;;;13.27;5.73;;;;;;;-2.16;89.37;92407.81;4838631;29;20109;-62
2021/12/10 01:25:52;;;;;;;14.13;4.97;;;;;;;-2.48;91.10;92383.38;4841234;29;20060;-63
2021/12/10 01:28:20;;;;;;;14.52;5.70;;;;;;;-2.49;90.98;92373.78;4841707;29;20056;-62
2021/12/10 01:30:47;;;;;;;14.65;6.00;;;;;;;-2.50;90.98;92367.63;4842065;29;20046;-62
2021/12/10 01:33:17;;;;;;;14.48;6.05;;;;;;;-2.42;91.05;92357.72;4841733;29;20065;-62
2021/12/10 01:35:49;;;;;;;13.90;5.82;;;;;;;-2.41;91.06;92359.25;4841920;29;20057;-62
2021/12/10 01:38:16;;;;;;;12.77;5.57;;;;;;;-2.38;91.07;92363.88;4841864;29;20050;-62
2021/12/10 01:40:48;;;;;;;14.95;6.20;;;;;;;-2.28;90.83;92348.97;4831123;29;20042;-62
2021/12/10 01:43:23;;;;;;;12.43;6.03;;;;;;;-2.26;90.55;92347.47;4813246;29;20440;-62
2021/12/10 01:46:02;;;;;;;15.88;6.82;;;;;;;-2.14;90.11;92335.66;4823953;29;20050;-62
2021/12/10 01:48:33;;;;;;;17.67;6.78;;;;;;;-2.14;89.62;92332.97;4822635;29;20600;-62
2021/12/10 01:51:01;;;;;;;16.27;6.30;;;;;;;-2.18;89.94;92340.22;4836988;29;20046;-62
2021/12/10 01:53:30;;;;;;;13.55;6.35;;;;;;;-2.14;90.03;92326.81;4840934;29;20168;-62
2021/12/10 01:56:00;;;;;;;16.60;6.78;;;;;;;-2.16;90.12;92319.13;4841317;29;20053;-63
2021/12/10 01:58:30;;;;;;;18.23;8.63;;;;;;;-2.13;90.37;92313.00;4841263;29;20979;-62
2021/12/10 02:01:04;;;;;;;30.20;13.77;;;;;;;-2.03;90.52;92301.56;4841677;29;20054;-62
2021/12/10 02:03:32;;;;;;;14.70;5.97;;;;;;;-2.02;90.01;92294.25;4841033;29;20049;-62
2021/12/10 02:06:00;;;;;;;13.20;6.13;;;;;;;-2.10;89.97;92288.06;4841319;29;20050;-62
2021/12/10 02:08:27;;;;;;;14.32;7.22;;;;;;;-2.14;90.57;92286.50;4840951;29;20379;-62
2021/12/10 02:10:53;;;;;;;17.42;7.28;;;;;;;-2.08;90.45;92287.69;4841489;29;20062;-62
2021/12/10 02:13:20;;;;;;;14.95;7.50;;;;;;;-2.07;90.20;92279.25;4841174;29;20053;-62
2021/12/10 02:15:47;;;;;;;15.03;6.63;;;;;;;-2.14;90.62;92263.09;4839963;29;20050;-61
2021/12/10 02:18:15;;;;;;;15.15;6.68;;;;;;;-2.18;90.80;92262.28;4840970;29;20072;-61
2021/12/10 02:20:57;;;;;;;15.45;6.07;;;;;;;-2.17;90.34;92250.41;4841028;29;20041;-62
2021/12/10 02:23:24;;;;;;;12.88;5.53;;;;;;;-2.15;90.48;92241.94;4840800;29;20068;-61
2021/12/10 02:25:51;;;;;;;14.82;6.68;;;;;;;-2.14;89.88;92233.53;4839737;29;20461;-63
2021/12/10 02:28:18;;;;;;;14.10;6.50;;;;;;;-2.08;89.76;92237.38;4840116;29;20058;-61
2021/12/10 02:30:45;;;;;;;16.17;6.60;;;;;;;-2.13;90.04;92236.97;4840827;29;20046;-61
2021/12/10 02:33:13;;;;;;;14.13;5.90;;;;;;;-2.05;89.81;92225.91;4840726;29;20109;-61
2021/12/10 02:35:40;;;;;;;15.63;6.57;;;;;;;-1.99;89.68;92218.25;4841063;29;20041;-64
2021/12/10 02:38:07;;;;;;;13.55;6.80;;;;;;;-1.98;89.29;92216.31;4840882;29;20054;-63
2021/12/10 02:40:36;;;;;;;17.27;6.67;;;;;;;-1.99;89.09;92217.44;4841202;29;20049;-63
2021/12/10 02:43:08;;;;;;;15.35;6.80;;;;;;;-2.08;89.47;92220.50;4840222;29;20077;-60
2021/12/10 02:45:36;;;;;;;15.85;6.47;;;;;;;-1.99;89.18;92212.88;4841036;29;20492;-61
2021/12/10 02:48:05;;;;;;;14.77;6.45;;;;;;;-2.06;89.50;92205.53;4839902;29;20073;-60
2021/12/10 02:50:33;;;;;;;15.25;7.25;;;;;;;-2.06;90.07;92202.06;4841049;29;20056;-61
2021/12/10 02:53:02;;;;;;;15.47;6.77;;;;;;;-2.09;90.09;92187.47;4840657;29;20050;-61
2021/12/10 02:55:30;;;;;;;18.95;7.35;;;;;;;-2.23;90.73;92182.81;4839943;29;20167;-62
2021/12/10 02:58:04;;;;;;;17.40;7.00;;;;;;;-2.29;91.45;92183.56;4840344;29;20068;-61
2021/12/10 03:00:38;;;;;;;16.35;7.07;;;;;;;-2.30;91.42;92180.09;4838585;29;20052;-61
2021/12/10 03:03:05;;;;;;;17.40;7.10;;;;;;;-2.34;91.60;92179.31;4839930;29;20054;-60
2021/12/10 03:05:32;;;;;;;16.10;7.30;;;;;;;-2.25;91.16;92168.22;4854661;29;20046;-61
2021/12/10 03:07:59;;;;;;;17.40;6.85;;;;;;;-2.23;90.93;92157.88;4840218;29;20045;-61
2021/12/10 03:10:29;;;;;;;17.95;7.18;;;;;;;-2.40;91.43;92153.94;4838739;29;20074;-61
2021/12/10 03:12:57;;;;;;;18.17;6.90;;;;;;;-2.49;91.54;92140.88;4840098;29;20092;-62
2021/12/10 03:15:25;;;;;;;18.67;7.38;;;;;;;-2.45;91.83;92119.41;4839928;29;20380;-62
2021/12/10 03:17:53;;;;;;;16.80;6.73;;;;;;;-2.47;92.17;92111.72;4837418;29;20042;-62
2021/12/10 03:20:25;;;;;;;19.02;7.35;;;;;;;-2.44;91.76;92115.56;4807428;29;20047;-61
2021/12/10 03:22:51;;;;;;;18.73;8.57;;;;;;;-2.39;91.58;92117.88;4804246;29;20055;-62
2021/12/10 03:25:18;;;;;;;71.20;28.48;;;;;;;-2.33;91.78;92112.94;4803441;29;20046;-61
2021/12/10 03:27:46;;;;;;;23.90;9.45;;;;;;;-2.29;91.50;92103.72;4803398;29;20053;-61
2021/12/10 03:30:18;;;;;;;18.07;7.43;;;;;;;-2.30;91.16;92104.09;4803354;29;20051;-61
2021/12/10 03:32:46;;;;;;;19.92;7.95;;;;;;;-2.42;91.17;92102.50;4803747;29;20043;-62
2021/12/10 03:35:19;;;;;;;19.58;8.23;;;;;;;-2.51;91.71;92099.44;4803448;29;20046;-61
2021/12/10 03:37:46;;;;;;;18.20;7.65;;;;;;;-2.58;92.29;92102.84;4803432;29;20363;-62
2021/12/10 03:40:15;;;;;;;19.88;8.40;;;;;;;-2.51;91.78;92099.44;4803288;29;20702;-61
2021/12/10 03:42:43;;;;;;;20.60;8.77;;;;;;;-2.57;91.70;92088.28;4803864;29;20056;-62
2021/12/10 03:45:13;;;;;;;20.42;8.15;;;;;;;-2.51;91.61;92086.00;4803399;29;20055;-61
2021/12/10 03:47:40;;;;;;;20.42;8.45;;;;;;;-2.51;91.42;92089.44;4803698;29;20140;-62
2021/12/10 03:50:08;;;;;;;20.38;8.65;;;;;;;-2.50;90.93;92090.97;4816547;29;20052;-62
2021/12/10 03:52:35;;;;;;;23.70;9.18;;;;;;;-2.57;91.53;92085.59;4838800;29;20046;-62
2021/12/10 03:55:05;;;;;;;23.83;8.77;;;;;;;-2.57;91.48;92082.13;4839273;29;20389;-60
2021/12/10 03:57:32;;;;;;;21.92;8.70;;;;;;;-2.51;91.22;92083.31;4853597;29;20056;-61
2021/12/10 03:59:59;;;;;;;20.27;8.00;;;;;;;-2.60;91.64;92089.00;4839275;29;20062;-62
2021/12/10 04:02:26;;;;;;;22.30;8.45;;;;;;;-2.64;91.54;92080.19;4839334;29;20050;-63
2021/12/10 04:04:53;;;;;;;20.10;7.30;;;;;;;-2.58;91.44;92081.34;4839436;29;20213;-62
2021/12/10 04:07:24;;;;;;;21.00;8.37;;;;;;;-2.61;91.49;92076.75;4802788;29;20124;-61
2021/12/10 04:09:52;;;;;;;20.83;7.88;;;;;;;-2.56;91.37;92081.75;4802655;29;20062;-62
2021/12/10 04:12:19;;;;;;;19.58;8.25;;;;;;;-2.59;90.95;92079.81;4802673;29;20055;-61
2021/12/10 04:14:48;;;;;;;21.23;8.30;;;;;;;-2.64;91.21;92072.88;4802796;29;20053;-62
2021/12/10 04:17:18;;;;;;;21.27;8.85;;;;;;;-2.67;90.99;92072.88;4802561;29;20106;-62
2021/12/10 04:19:47;;;;;;;18.90;7.80;;;;;;;-2.70;91.37;92065.56;4810263;29;20050;-62
2021/12/10 04:22:14;;;;;;;21.45;8.18;;;;;;;-2.71;90.95;92064.81;4804885;29;20085;-61
2021/12/10 04:24:41;;;;;;;21.23;8.80;;;;;;;-2.76;91.16;92062.47;4803132;29;20042;-62
2021/12/10 04:27:11;;;;;;;21.75;9.50;;;;;;;-2.84;91.68;92052.84;4802174;29;20047;-61
2021/12/10 04:29:39;;;;;;;22.65;9.57;;;;;;;-2.87;92.11;92046.34;4802932;29;20069;-62
2021/12/10 04:32:07;;;;;;;20.77;9.13;;;;;;;-2.94;92.28;92032.88;4802333;29;20058;-61
2021/12/10 04:34:35;;;;;;;21.67;9.30;;;;;;;-2.93;92.47;92028.28;4802982;29;20095;-62
2021/12/10 04:37:05;;;;;;;22.20;9.13;;;;;;;-2.89;92.10;92019.09;4802678;29;20438;-62
2021/12/10 04:39:34;;;;;;;19.35;7.57;;;;;;;-2.98;92.40;92012.53;4802108;29;20051;-62
2021/12/10 04:42:01;;;;;;;18.52;7.45;;;;;;;-3.11;92.78;92006.75;4802542;29;20088;-62
2021/12/10 04:44:28;;;;;;;19.93;7.40;;;;;;;-3.11;92.87;92002.13;4801860;29;21613;-62
2021/12/10 04:46:54;;;;;;;21.17;7.35;;;;;;;-3.17;93.12;92005.56;4816236;29;20054;-62
2021/12/10 04:49:21;;;;;;;19.15;8.10;;;;;;;-3.13;92.81;92007.13;4804260;29;20062;-62
2021/12/10 04:51:52;;;;;;;79.65;30.80;;;;;;;-3.04;92.90;92001.41;4842388;29;20113;-62
2021/12/10 04:54:21;;;;;;;22.70;10.07;;;;;;;-3.01;92.09;92008.69;4842283;29;20054;-61
2021/12/10 04:56:49;;;;;;;21.90;8.60;;;;;;;-2.99;92.04;92014.47;4842287;29;20069;-62
2021/12/10 04:59:17;;;;;;;19.70;8.23;;;;;;;-3.07;92.55;92013.66;4842197;29;20543;-61
2021/12/10 05:01:45;;;;;;;19.77;7.80;;;;;;;-3.05;92.47;92013.28;4842559;29;20056;-61
2021/12/10 05:04:14;;;;;;;23.23;8.18;;;;;;;-3.03;92.53;92002.94;4841498;29;20058;-61
2021/12/10 05:06:42;;;;;;;21.73;7.75;;;;;;;-3.04;92.64;91996.81;4841112;29;20053;-61
2021/12/10 05:09:12;;;;;;;22.83;9.10;;;;;;;-3.11;92.59;91990.66;4841813;29;20050;-61
2021/12/10 05:11:40;;;;;;;19.48;7.50;;;;;;;-3.06;92.62;91995.63;4842397;29;20045;-61
2021/12/10 05:14:07;;;;;;;23.70;8.27;;;;;;;-3.09;92.75;92004.44;4841788;29;20060;-61
2021/12/10 05:16:41;;;;;;;22.85;8.07;;;;;;;-3.07;92.85;91999.47;4842557;29;20048;-61
2021/12/10 05:19:09;;;;;;;19.13;7.40;;;;;;;-3.18;92.40;91996.72;4822498;29;20085;-61
2021/12/10 05:21:38;;;;;;;19.20;7.20;;;;;;;-3.32;92.60;91986.72;4815217;29;20408;-61
2021/12/10 05:24:07;;;;;;;17.48;6.13;;;;;;;-3.29;92.52;91987.88;4805696;29;20057;-60
2021/12/10 05:26:34;;;;;;;22.40;7.70;;;;;;;-3.36;93.07;91975.22;4805931;29;20054;-61
2021/12/10 05:29:03;;;;;;;17.90;7.40;;;;;;;-3.34;92.77;91974.81;4805505;29;20051;-62
2021/12/10 05:31:30;;;;;;;17.48;7.25;;;;;;;-3.34;92.41;91972.13;4805053;29;21668;-62
2021/12/10 05:33:57;;;;;;;17.10;7.00;;;;;;;-3.41;92.52;91968.28;4805514;29;20063;-62
2021/12/10 05:36:24;;;;;;;17.67;7.05;;;;;;;-3.39;92.64;91959.09;4805149;29;20057;-62
2021/12/10 05:38:52;;;;;;;20.15;7.43;;;;;;;-3.34;91.61;91951.47;4818995;29;20054;-63
2021/12/10 05:41:20;;;;;;;19.08;7.65;;;;;;;-3.29;91.79;91947.66;4804877;29;20111;-62
2021/12/10 05:43:47;;;;;;;19.45;7.75;;;;;;;-3.26;91.41;91936.16;4819346;29;20061;-62
2021/12/10 05:46:15;;;;;;;18.93;7.13;;;;;;;-3.31;91.15;91939.97;4804834;29;20055;-62
2021/12/10 05:48:44;;;;;;;20.48;8.18;;;;;;;-3.25;90.88;91940.38;4819059;29;20046;-62
2021/12/10 05:51:11;;;;;;;18.02;7.75;;;;;;;-3.21;91.26;91938.47;4834346;29;20053;-61
2021/12/10 05:53:39;;;;;;;23.17;8.52;;;;;;;-3.26;91.40;91947.66;4841629;29;20058;-63
2021/12/10 05:56:06;;;;;;;20.77;8.27;;;;;;;-3.25;91.27;91945.75;4840869;29;20046;-62
2021/12/10 05:58:33;;;;;;;23.07;8.53;;;;;;;-3.27;91.65;91954.16;4841760;29;20053;-63
2021/12/10 06:01:07;;;;;;;22.30;7.97;;;;;;;-3.22;91.48;91947.66;4843502;29;20059;-63
2021/12/10 06:03:38;;;;;;;18.90;7.65;;;;;;;-3.22;91.58;91942.28;4809879;29;20265;-62
2021/12/10 06:06:06;;;;;;;22.48;8.40;;;;;;;-3.25;91.87;91938.47;4804066;29;20071;-61
2021/12/10 06:08:33;;;;;;;20.00;8.57;;;;;;;-3.25;92.07;91925.03;4805271;29;20055;-65
2021/12/10 06:11:01;;;;;;;22.43;7.93;;;;;;;-3.25;91.97;91918.91;4803348;29;20065;-62
2021/12/10 06:13:28;;;;;;;22.83;8.30;;;;;;;-3.23;92.25;91920.06;4804145;29;20862;-62
2021/12/10 06:15:55;;;;;;;22.58;9.07;;;;;;;-3.22;92.19;91896.69;4804932;29;20066;-63
2021/12/10 06:18:22;;;;;;;20.95;8.70;;;;;;;-3.28;91.84;91896.31;4803557;29;20100;-63
2021/12/10 06:20:50;;;;;;;24.42;8.30;;;;;;;-3.27;92.18;91886.34;4803808;29;20062;-63
2021/12/10 06:23:19;;;;;;;21.97;8.93;;;;;;;-3.19;91.92;91876.41;4804436;29;20058;-62
2021/12/10 06:25:47;;;;;;;22.88;9.10;;;;;;;-3.12;91.87;91874.50;4804929;29;20045;-63
2021/12/10 06:28:14;;;;;;;24.40;9.63;;;;;;;-3.25;92.10;91865.28;4802965;29;20061;-62
2021/12/10 06:30:45;;;;;;;24.73;9.18;;;;;;;-3.27;92.31;91868.31;4804925;29;20496;-62
2021/12/10 06:33:15;;;;;;;23.83;9.70;;;;;;;-3.20;92.32;91856.84;4804409;29;20055;-63
2021/12/10 06:35:47;;;;;;;29.67;13.00;;;;;;;-3.13;91.55;91859.56;4803625;29;20050;-62
2021/12/10 06:38:14;;;;;;;24.75;10.00;;;;;;;-3.04;91.80;91851.13;4803950;29;20118;-61
2021/12/10 06:40:42;;;;;;;36.70;13.88;;;;;;;-3.09;91.67;91852.28;4818292;29;20045;-62
2021/12/10 06:43:11;;;;;;;21.35;7.55;;;;;;;-3.16;91.65;91854.16;4803794;29;20066;-61
2021/12/10 06:45:42;;;;;;;20.65;7.80;;;;;;;-3.31;92.55;91842.66;4804476;29;20077;-62
2021/12/10 06:48:10;;;;;;;19.77;7.13;;;;;;;-3.25;92.84;91833.84;4803937;29;20055;-62
2021/12/10 06:50:40;;;;;;;22.08;8.38;;;;;;;-3.11;92.29;91824.31;4819453;29;20057;-62
2021/12/10 06:53:07;;;;;;;19.17;7.40;;;;;;;-3.31;91.92;91831.91;4818796;29;20054;-61
2021/12/10 06:55:35;;;;;;;20.95;6.78;;;;;;;-3.27;92.46;91825.41;4804252;29;20081;-62
2021/12/10 06:58:04;;;;;;;19.25;6.78;;;;;;;-3.17;92.26;91815.09;4803522;29;20059;-57
2021/12/10 07:00:33;;;;;;;17.60;6.80;;;;;;;-3.14;91.64;91819.69;4804331;29;20046;-61
2021/12/10 07:03:00;;;;;;;19.77;7.50;;;;;;;-3.19;91.84;91820.06;4804127;29;20046;-62
2021/12/10 07:05:27;;;;;;;17.00;6.82;;;;;;;-3.19;91.29;91833.50;4811580;29;20056;-61
2021/12/10 07:07:54;;;;;;;20.80;6.60;;;;;;;-3.27;91.84;91816.59;4839529;29;20057;-61
2021/12/10 07:10:22;;;;;;;19.77;7.53;;;;;;;-3.25;91.51;91825.81;4839937;29;20042;-61
2021/12/10 07:12:51;;;;;;;23.07;8.20;;;;;;;-3.17;91.53;91833.88;4840121;29;20049;-61
2021/12/10 07:15:18;;;;;;;19.13;7.28;;;;;;;-3.20;91.40;91827.34;4838603;29;20062;-61
2021/12/10 07:17:49;;;;;;;18.10;7.28;;;;;;;-3.22;91.01;91821.56;4840707;29;20054;-62
2021/12/10 07:20:20;;;;;;;17.95;6.75;;;;;;;-3.23;90.42;91820.81;4839638;29;20928;-61
2021/12/10 07:22:48;;;;;;;20.02;7.80;;;;;;;-3.20;90.91;91824.66;4840454;29;20072;-61
2021/12/10 07:25:15;;;;;;;23.77;7.40;;;;;;;-3.23;90.78;91822.75;4839475;29;20049;-61
2021/12/10 07:27:41;;;;;;;22.40;6.80;;;;;;;-3.25;90.65;91827.72;4838786;29;20178;-61
2021/12/10 07:30:09;;;;;;;18.30;6.65;;;;;;;-3.25;91.09;91827.72;4839428;29;20207;-61
2021/12/10 07:32:36;;;;;;;23.73;7.68;;;;;;;-3.21;90.54;91823.88;4840379;29;20078;-61
2021/12/10 07:35:06;;;;;;;29.60;10.55;;;;;;;-3.24;90.52;91813.94;4853681;29;20042;-60
2021/12/10 07:37:33;;;;;;;26.63;8.90;;;;;;;-3.14;90.62;91817.00;4840302;29;20046;-62
2021/12/10 07:40:00;;;;;;;31.85;9.18;;;;;;;-3.07;90.43;91811.66;4839832;29;20060;-62
2021/12/10 07:42:26;;;;;;;32.13;10.85;;;;;;;-3.13;90.71;91807.81;4839422;29;20053;-62
2021/12/10 07:44:56;;;;;;;22.80;9.80;;;;;;;-2.89;89.92;91806.31;4839823;29;20048;-62
2021/12/10 07:47:23;;;;;;;39.42;15.93;;;;;;;-2.72;89.47;91796.72;4839102;29;20058;-62
2021/12/10 07:49:52;;;;;;;28.40;9.10;;;;;;;-2.58;89.10;91801.31;4826388;29;20087;-61
2021/12/10 07:52:26;;;;;;;24.23;8.52;;;;;;;-2.54;88.34;91799.41;4811683;29;20058;-61
2021/12/10 07:54:53;;;;;;;19.35;8.82;;;;;;;-2.43;88.10;91800.94;4802835;29;20055;-60
2021/12/10 07:57:22;;;;;;;18.52;8.25;;;;;;;-2.50;87.51;91798.22;4801758;29;20500;-62
2021/12/10 07:59:49;;;;;;;17.10;7.07;;;;;;;-2.36;87.40;91805.50;4813522;29;20068;-63
2021/12/10 08:02:19;;;;;;;22.23;7.10;;;;;;;-2.38;86.59;91797.06;4802927;29;20165;-62
2021/12/10 08:04:46;;;;;;;26.88;8.57;;;;;;;-2.47;87.00;91805.53;4803270;29;20059;-62
2021/12/10 08:07:13;;;;;;;29.20;8.45;;;;;;;-2.50;87.11;91806.28;4836846;29;20057;-62
2021/12/10 08:09:42;;;;;;;20.80;6.88;;;;;;;-2.43;86.47;91808.97;4839570;29;20050;-62
2021/12/10 08:12:09;;;;;;;20.67;7.22;;;;;;;-2.43;86.84;91822.41;4852932;29;20089;-62
2021/12/10 08:14:36;;;;;;;25.27;8.67;;;;;;;-2.53;87.02;91819.75;4837862;29;20050;-62
2021/12/10 08:17:04;;;;;;;15.68;6.07;;;;;;;-2.63;87.67;91813.97;4838413;29;20076;-61
2021/12/10 08:19:31;;;;;;;24.58;8.18;;;;;;;-2.71;87.68;91817.06;4839406;29;20050;-62
2021/12/10 08:21:58;;;;;;;27.45;8.98;;;;;;;-2.74;87.87;91815.88;4838004;29;20159;-62
2021/12/10 08:24:25;;;;;;;23.77;8.07;;;;;;;-2.82;88.60;91814.34;4838089;29;20042;-62
2021/12/10 08:26:52;;;;;;;17.07;6.70;;;;;;;-2.85;88.74;91807.09;4839187;29;20413;-62
2021/12/10 08:29:20;;;;;;;13.20;5.97;;;;;;;-2.66;87.83;91797.88;4836880;29;20069;-62
2021/12/10 08:31:47;;;;;;;13.27;5.10;;;;;;;-2.81;87.51;91784.44;4839033;29;20080;-62
2021/12/10 08:34:14;;;;;;;12.43;5.30;;;;;;;-2.73;87.19;91781.78;4838517;29;20060;-62
2021/12/10 08:36:41;;;;;;;19.65;7.22;;;;;;;-2.44;87.00;91780.56;4838711;29;20054;-62
2021/12/10 08:39:11;;;;;;;16.90;6.00;;;;;;;-2.31;85.83;91772.91;4838492;29;20419;-62
2021/12/10 08:41:39;;;;;;;14.18;5.55;;;;;;;-2.07;85.14;91768.63;4838937;29;20046;-62
2021/12/10 08:44:08;;;;;;;16.05;6.10;;;;;;;-2.07;85.27;91773.22;4838102;29;20126;-64
2021/12/10 08:46:37;;;;;;;18.25;8.02;;;;;;;-1.79;84.27;91760.81;4838407;29;20058;-63
2021/12/10 08:49:05;;;;;;;17.52;6.70;;;;;;;-1.78;83.98;91760.44;4802680;29;20081;-61
2021/12/10 08:51:36;;;;;;;34.97;12.87;;;;;;;-1.56;83.97;91757.66;4815223;29;20039;-63
2021/12/10 08:54:03;;;;;;;32.00;11.95;;;;;;;-1.64;83.06;91768.44;4803028;29;20043;-62
2021/12/10 08:56:31;;;;;;;18.83;7.72;;;;;;;-1.83;83.92;91772.38;4801757;29;20049;-63
2021/12/10 08:59:00;;;;;;;18.15;7.07;;;;;;;-1.96;84.49;91773.19;4801927;29;20057;-62
2021/12/10 09:01:33;;;;;;;19.20;7.25;;;;;;;-1.91;85.08;91770.88;4801366;29;20058;-63
2021/12/10 09:04:03;;;;;;;18.03;7.47;;;;;;;-1.94;85.47;91765.50;4802454;29;20058;-63
2021/12/10 09:06:33;;;;;;;19.48;7.60;;;;;;;-1.89;85.82;91760.50;4825756;29;20604;-62
2021/12/10 09:09:03;;;;;;;18.15;7.22;;;;;;;-1.78;85.67;91751.63;4838822;29;20042;-62
2021/12/10 09:11:31;;;;;;;17.30;7.20;;;;;;;-1.72;85.20;91739.28;4837778;29;20967;-62
2021/12/10 09:14:18;;;;;;;20.15;7.53;;;;;;;-1.70;85.04;91743.13;4838215;29;20050;-63
2021/12/10 09:16:46;;;;;;;16.70;7.03;;;;;;;-1.45;83.86;91743.00;4839005;29;20045;-62
2021/12/10 09:19:15;;;;;;;15.75;6.97;;;;;;;-1.51;84.04;91749.16;4838306;29;20081;-63
2021/12/10 09:21:44;;;;;;;15.82;5.88;;;;;;;-1.29;83.69;91741.75;4837343;29;20062;-62
2021/12/10 09:24:13;;;;;;;16.58;6.82;;;;;;;-1.27;84.16;91750.19;4819067;29;20051;-63
2021/12/10 09:26:43;;;;;;;17.35;6.82;;;;;;;-1.30;83.80;91742.91;4820928;29;20061;-63
2021/12/10 09:29:14;;;;;;;19.67;7.87;;;;;;;-1.43;83.66;91731.81;4820136;29;20125;-63
2021/12/10 09:31:42;;;;;;;17.45;7.07;;;;;;;-1.54;83.80;91737.28;4819405;29;20050;-63
2021/12/10 09:34:12;;;;;;;19.30;7.30;;;;;;;-1.48;83.72;91740.31;4819927;29;20050;-63
2021/12/10 09:36:40;;;;;;;18.92;7.40;;;;;;;-1.42;83.90;91742.19;4822283;29;20050;-63
2021/12/10 09:39:09;;;;;;;17.95;7.35;;;;;;;-1.53;83.55;91738.81;4823127;29;20121;-63
2021/12/10 09:41:37;;;;;;;17.57;7.77;;;;;;;-1.58;84.12;91735.78;4823663;29;20057;-63
2021/12/10 09:44:07;;;;;;;18.98;8.07;;;;;;;-1.58;83.85;91722.31;4823013;29;20060;-64
2021/12/10 09:46:39;;;;;;;22.70;9.13;;;;;;;-1.64;83.74;91730.78;4823787;29;20046;-63
2021/12/10 09:49:09;;;;;;;23.40;10.45;;;;;;;-1.56;84.26;91726.16;4823001;29;20054;-63
2021/12/10 09:51:41;;;;;;;28.48;12.73;;;;;;;-1.51;84.41;91728.44;4840582;29;20077;-63
2021/12/10 09:54:13;;;;;;;17.73;7.10;;;;;;;-1.65;84.76;91720.41;4841354;29;20109;-63
2021/12/10 09:56:46;;;;;;;19.48;8.30;;;;;;;-1.53;84.51;91716.50;4841925;29;20056;-63
2021/12/10 09:59:15;;;;;;;17.55;7.47;;;;;;;-1.43;84.05;91715.69;4841417;29;20053;-63
2021/12/10 10:01:45;;;;;;;15.07;5.82;;;;;;;-1.54;83.55;91715.75;4842021;29;20054;-63
2021/12/10 10:04:17;;;;;;;16.65;5.80;;;;;;;-1.62;84.36;91708.88;4855535;29;20046;-63
2021/12/10 10:06:50;;;;;;;15.80;6.10;;;;;;;-1.61;85.38;91705.03;4841789;29;20053;-63
2021/12/10 10:09:19;;;;;;;14.38;6.75;;;;;;;-1.47;85.71;91709.56;4841130;29;20054;-63
2021/12/10 10:12:00;;;;;;;14.40;6.60;;;;;;;-1.43;85.14;91702.22;4855634;29;20050;-63
2021/12/10 10:14:28;;;;;;;14.52;5.95;;;;;;;-1.55;85.08;91710.75;4840349;29;20419;-63
2021/12/10 10:16:55;;;;;;;14.85;6.55;;;;;;;-1.50;85.20;91705.75;4840237;29;20121;-63
2021/12/10 10:19:22;;;;;;;12.07;5.50;;;;;;;-1.46;83.89;91689.59;4840656;29;20050;-63
2021/12/10 10:21:56;;;;;;;12.98;5.35;;;;;;;-1.29;83.69;91696.78;4841411;29;20161;-63
2021/12/10 10:24:26;;;;;;;11.57;4.63;;;;;;;-1.31;82.78;91691.03;4840720;29;20532;-63
2021/12/10 10:27:23;;;;;;;11.65;5.15;;;;;;;-1.41;84.29;91698.00;4841636;29;20054;-63
2021/12/10 10:30:06;;;;;;;12.02;5.53;;;;;;;-1.46;84.32;91682.28;4839377;29;20141;-63
2021/12/10 10:32:34;;;;;;;10.73;4.63;;;;;;;-1.56;84.77;91669.66;4840596;29;21735;-63
2021/12/10 10:35:08;;;;;;;10.80;4.43;;;;;;;-1.43;84.77;91678.03;4841341;29;20080;-63
2021/12/10 10:37:35;;;;;;;12.10;4.45;;;;;;;-1.60;85.00;91674.31;4840468;29;21532;-63
2021/12/10 10:40:06;;;;;;;11.30;4.57;;;;;;;-1.57;85.63;91667.34;4840855;29;20062;-61
2021/12/10 10:42:33;;;;;;;12.95;6.20;;;;;;;-1.57;86.02;91660.06;4855138;29;20053;-63
2021/12/10 10:45:06;;;;;;;11.47;5.00;;;;;;;-1.43;84.94;91661.88;4841333;29;20103;-63
2021/12/10 10:47:33;;;;;;;11.68;5.13;;;;;;;-1.62;85.47;91661.25;4839451;29;20501;-63
2021/12/10 10:50:13;;;;;;;12.18;5.50;;;;;;;-1.68;86.76;91659.38;4827167;29;20080;-63
2021/12/10 10:52:45;;;;;;;13.27;5.28;;;;;;;-1.62;87.15;91652.41;4840860;29;21536;-63
2021/12/10 10:55:12;;;;;;;12.32;5.40;;;;;;;-1.56;87.82;91645.47;4839974;29;20054;-63
2021/12/10 10:57:57;;;;;;;12.30;4.23;;;;;;;-1.80;87.75;91647.16;4840715;29;20042;-64
2021/12/10 11:00:33;;;;;;;10.63;4.47;;;;;;;-1.77;89.17;91645.59;4839905;29;20098;-63
2021/12/10 11:03:10;;;;;;;13.25;5.35;;;;;;;-1.90;89.58;91645.28;4841087;29;20062;-63
2021/12/10 11:05:46;;;;;;;10.63;4.32;;;;;;;-2.02;90.70;91641.88;4839694;29;20608;-63
2021/12/10 11:08:13;;;;;;;11.75;4.60;;;;;;;-1.96;91.45;91636.09;4840017;29;20180;-64
2021/12/10 11:10:43;;;;;;;9.13;3.93;;;;;;;-2.15;91.31;91635.44;4840749;29;20509;-63
2021/12/10 11:13:21;;;;;;;16.02;4.53;;;;;;;-2.15;92.68;91634.66;4840006;29;20054;-64
2021/12/10 11:16:06;;;;;;;8.45;4.15;;;;;;;-2.13;92.68;91630.44;4840765;29;20060;-63
2021/12/10 11:18:48;;;;;;;8.40;3.60;;;;;;;-2.22;93.20;91630.09;4839411;29;21700;-63
2021/12/10 11:21:31;;;;;;;9.85;4.55;;;;;;;-2.16;93.58;91627.75;4839544;29;20065;-63
2021/12/10 11:24:31;;;;;;;15.73;6.17;;;;;;;-1.95;94.39;91619.59;4854527;29;20050;-63
2021/12/10 11:27:03;;;;;;;12.70;4.82;;;;;;;-1.94;93.65;91623.03;4853359;29;20048;-63
2021/12/10 11:30:00;;;;;;;14.10;4.47;;;;;;;-1.94;93.59;91610.34;4826047;29;20496;-63
2021/12/10 11:32:48;;;;;;;14.13;5.13;;;;;;;-1.78;93.39;91617.19;4821122;29;20042;-63
2021/12/10 11:35:20;;;;;;;10.50;4.40;;;;;;;-1.85;93.24;91615.28;4821227;29;20062;-63
2021/12/10 11:37:56;;;;;;;8.67;4.07;;;;;;;-1.70;92.52;91618.66;4821924;29;20535;-63
2021/12/10 11:40:42;;;;;;;13.48;5.78;;;;;;;-1.65;93.00;91605.56;4821245;29;20052;-63
2021/12/10 11:46:29;;;;;;;12.45;4.93;;;;;;;-1.68;92.25;91602.91;4821699;29;20050;-63
2021/12/10 11:49:02;;;;;;;8.35;3.80;;;;;;;-1.75;92.79;91600.25;4820981;29;20962;-62
2021/12/10 11:51:49;;;;;;;9.17;4.20;;;;;;;-1.79;92.61;91610.25;4837547;29;21638;-63